Time;durP1;ratioP1;P1;durP2;ratioP2;P2;SDS_P1;SDS_P2;PMS_P1;PMS_P2;Temp;Humidity;BMP_temperature;BMP_pressure;BME280_temperature;BME280_humidity;BME280_pressure;Samples;Min_cycle;Max_cycle;Signal;HPM_P1;HPM_P2
2022/11/24 00:01:53;;;;;;;;;11.25;11.25;;;;;9.46;77.96;99845.91;5055213;28;45618;-72
2022/11/24 00:04:18;;;;;;;;;9.25;8.25;;;;;9.44;78.01;99843.34;5055200;28;45963;-72
2022/11/24 00:06:44;;;;;;;;;8.25;8.25;;;;;9.45;78.14;99846.81;5055529;28;45472;-71
2022/11/24 00:09:09;;;;;;;;;6.50;6.50;;;;;9.47;78.02;99850.22;5055657;28;45270;-71
2022/11/24 00:11:35;;;;;;;;;11.25;10.25;;;;;9.48;77.73;99836.19;5055581;28;45295;-71
2022/11/24 00:14:02;;;;;;;;;8.50;7.50;;;;;9.49;78.17;99848.38;5055332;28;45608;-72
2022/11/24 00:16:30;;;;;;;;;10.50;8.75;;;;;9.48;77.73;99852.75;5055112;28;45430;-71
2022/11/24 00:18:57;;;;;;;;;8.50;7.50;;;;;9.48;77.98;99854.56;5055319;28;45425;-70
2022/11/24 00:21:23;;;;;;;;;6.00;6.00;;;;;9.35;78.12;99841.16;5053650;28;45728;-72
2022/11/24 00:23:50;;;;;;;;;5.00;5.00;;;;;9.52;77.89;99863.13;5054840;28;45454;-71
2022/11/24 00:26:22;;;;;;;;;7.00;6.75;;;;;9.53;78.01;99852.56;5054499;28;45296;-70
2022/11/24 00:28:51;;;;;;;;;10.75;10.75;;;;;9.56;78.06;99846.34;5054979;28;45211;-72
2022/11/24 00:31:20;;;;;;;;;6.00;5.75;;;;;9.57;78.01;99835.75;5053373;28;45571;-72
2022/11/24 00:33:47;;;;;;;;;7.25;7.25;;;;;9.62;77.72;99840.78;5054487;28;45290;-71
2022/11/24 00:36:13;;;;;;;;;7.25;6.50;;;;;9.64;77.74;99825.81;5055025;28;45283;-71
2022/11/24 00:38:38;;;;;;;;;5.00;5.00;;;;;9.64;77.80;99817.94;5054118;28;45251;-71
2022/11/24 00:41:04;;;;;;;;;6.75;6.75;;;;;9.64;77.48;99815.31;5055131;28;45550;-73
2022/11/24 00:43:30;;;;;;;;;5.00;4.00;;;;;9.65;77.75;99803.88;5054723;28;46516;-70
2022/11/24 00:45:55;;;;;;;;;5.00;5.00;;;;;9.70;77.32;99793.13;5054700;28;45394;-71
2022/11/24 00:48:21;;;;;;;;;6.00;5.75;;;;;9.74;77.25;99799.94;5055060;28;45382;-70
2022/11/24 00:50:56;;;;;;;;;7.75;5.50;;;;;9.76;77.06;99824.34;5055109;28;45429;-73
2022/11/24 00:53:21;;;;;;;;;6.25;5.75;;;;;9.75;76.77;99805.13;5054650;28;45456;-72
2022/11/24 00:55:50;;;;;;;;;5.25;4.25;;;;;9.81;76.58;99798.69;5054504;28;49754;-71
2022/11/24 00:58:16;;;;;;;;;5.25;4.75;;;;;9.82;76.20;99800.41;5053422;28;45362;-72
2022/11/24 01:00:41;;;;;;;;;4.25;4.25;;;;;9.83;76.09;99781.09;5070457;28;45202;-71
2022/11/24 01:03:06;;;;;;;;;3.50;3.25;;;;;9.86;75.62;99791.44;5054577;28;46264;-72
2022/11/24 01:05:35;;;;;;;;;3.25;3.25;;;;;9.90;75.48;99795.59;5054599;28;45236;-74
2022/11/24 01:08:00;;;;;;;;;4.75;3.00;;;;;9.90;75.20;99806.13;5054761;28;45767;-71
2022/11/24 01:10:26;;;;;;;;;15.25;15.25;;;;;9.94;74.97;99828.69;5053100;28;45609;-72
2022/11/24 01:12:51;;;;;;;;;9.50;7.75;;;;;9.96;74.23;99841.75;5054363;28;46215;-71
2022/11/24 01:15:16;;;;;;;;;1.50;1.00;;;;;9.93;73.89;99826.97;5054837;28;45288;-71
2022/11/24 01:17:42;;;;;;;;;3.00;3.00;;;;;9.97;73.92;99832.94;5054481;28;45684;-70
2022/11/24 01:20:08;;;;;;;;;2.00;1.50;;;;;9.97;73.81;99853.09;5054529;28;45522;-71
2022/11/24 01:22:33;;;;;;;;;2.00;2.00;;;;;9.93;73.37;99847.16;5052745;28;48468;-73
2022/11/24 01:24:59;;;;;;;;;1.00;1.00;;;;;9.93;73.40;99858.50;5052712;28;45483;-72
2022/11/24 01:27:24;;;;;;;;;1.00;1.00;;;;;9.88;72.96;99859.66;5054344;28;45347;-70
2022/11/24 01:29:49;;;;;;;;;2.00;2.00;;;;;9.87;73.16;99871.94;5052875;28;45479;-70
2022/11/24 01:32:15;;;;;;;;;1.00;1.00;;;;;9.85;72.65;99876.41;5054131;28;46257;-70
2022/11/24 01:34:40;;;;;;;;;1.00;1.00;;;;;9.79;72.40;99880.22;5054044;28;45323;-69
2022/11/24 01:37:05;;;;;;;;;1.75;1.75;;;;;9.77;72.64;99868.94;5054311;28;45429;-70
2022/11/24 01:39:30;;;;;;;;;0.00;0.00;;;;;9.76;72.49;99869.84;5054293;28;45632;-71
2022/11/24 01:42:00;;;;;;;;;2.25;2.25;;;;;9.71;72.25;99866.59;5053975;28;46377;-67
2022/11/24 01:44:28;;;;;;;;;1.75;1.75;;;;;9.68;72.24;99872.00;5054145;28;45431;-72
2022/11/24 01:46:58;;;;;;;;;3.00;2.25;;;;;9.62;71.91;99869.66;5054241;28;45448;-72
2022/11/24 01:49:40;;;;;;;;;0.00;0.00;;;;;9.61;72.33;99888.97;5054316;28;45344;-76
2022/11/24 01:52:09;;;;;;;;;0.00;0.00;;;;;9.60;72.36;99887.28;5058497;28;45433;-72
2022/11/24 01:54:46;;;;;;;;;1.00;1.00;;;;;9.52;72.09;99877.13;5074461;28;45551;-74
2022/11/24 01:57:20;;;;;;;;;0.75;0.00;;;;;9.52;72.67;99889.38;5074193;28;45391;-71
2022/11/24 01:59:50;;;;;;;;;1.00;1.00;;;;;9.54;72.49;99911.16;5078473;28;46943;-74
2022/11/24 02:02:16;;;;;;;;;2.50;1.75;;;;;9.52;72.86;99920.88;5076489;27;45456;-75
2022/11/24 02:04:43;;;;;;;;;1.00;1.00;;;;;9.47;73.20;99913.25;5088651;27;45266;-73
2022/11/24 02:07:11;;;;;;;;;1.00;1.00;;;;;9.47;73.42;99934.25;5075680;28;45216;-75
2022/11/24 02:09:44;;;;;;;;;0.50;0.50;;;;;9.45;73.58;99952.66;5072944;28;45233;-75
2022/11/24 02:12:10;;;;;;;;;0.25;0.25;;;;;9.42;73.65;99937.06;5075993;27;46148;-77
2022/11/24 02:14:37;;;;;;;;;0.25;0.25;;;;;9.41;73.76;99935.34;5071940;27;45536;-72
2022/11/24 02:17:02;;;;;;;;;0.25;0.25;;;;;9.35;73.90;99946.13;5091280;27;45503;-72
2022/11/24 02:19:41;;;;;;;;;1.75;1.75;;;;;9.37;74.22;99964.47;5096743;27;45393;-71
2022/11/24 02:22:17;;;;;;;;;0.25;0.25;;;;;9.34;75.02;99966.31;5074642;28;46301;-70
2022/11/24 02:24:58;;;;;;;;;0.00;0.00;;;;;9.32;74.46;99973.38;5074482;28;45396;-72
2022/11/24 02:27:23;;;;;;;;;1.00;1.00;;;;;9.29;74.51;99976.16;5074780;28;45471;-69
2022/11/24 02:29:49;;;;;;;;;0.25;0.25;;;;;9.29;74.64;99981.41;5074841;28;45484;-72
2022/11/24 02:32:15;;;;;;;;;1.00;1.00;;;;;9.28;75.09;99987.56;5074765;27;46359;-72
2022/11/24 02:34:40;;;;;;;;;0.75;0.75;;;;;9.26;75.37;99997.28;5075555;28;45430;-73
2022/11/24 02:37:05;;;;;;;;;1.00;1.00;;;;;9.23;75.72;99991.31;5075883;27;45419;-73
2022/11/24 02:39:31;;;;;;;;;1.00;1.00;;;;;9.19;75.65;99995.84;5076841;28;45378;-75
2022/11/24 02:42:01;;;;;;;;;0.00;0.00;;;;;9.19;75.85;99994.06;5076880;28;46476;-74
2022/11/24 02:44:31;;;;;;;;;1.00;1.00;;;;;9.19;75.65;99999.31;5076826;28;45461;-73
2022/11/24 02:47:09;;;;;;;;;1.00;1.00;;;;;9.20;76.18;100003.63;5075404;27;45298;-72
2022/11/24 02:49:35;;;;;;;;;1.00;1.00;;;;;9.19;76.51;100020.31;5075801;28;45407;-71
2022/11/24 02:52:00;;;;;;;;;1.50;1.50;;;;;9.14;76.83;100024.06;5076823;28;45498;-69
2022/11/24 02:54:25;;;;;;;;;1.75;1.75;;;;;9.17;76.85;100027.38;5075317;28;45438;-72
2022/11/24 02:56:51;;;;;;;;;1.25;1.00;;;;;9.16;77.17;100024.84;5077079;28;45432;-69
2022/11/24 02:59:17;;;;;;;;;1.00;1.00;;;;;9.05;77.07;100012.19;5077373;28;45604;-68
2022/11/24 03:01:42;;;;;;;;;1.00;1.00;;;;;9.10;77.27;100027.75;5075910;27;45432;-70
2022/11/24 03:04:08;;;;;;;;;1.00;1.00;;;;;9.05;77.24;100028.78;5076559;28;45248;-74
2022/11/24 03:06:33;;;;;;;;;2.00;1.00;;;;;9.05;77.64;100036.66;5075888;28;45367;-68
2022/11/24 03:08:58;;;;;;;;;3.00;1.00;;;;;9.02;77.77;100035.94;5076501;28;45320;-70
2022/11/24 03:11:24;;;;;;;;;2.25;2.25;;;;;9.00;78.17;100043.84;5076498;27;46112;-68
2022/11/24 03:13:49;;;;;;;;;1.00;1.00;;;;;9.02;78.28;100055.16;5075459;28;45379;-70
2022/11/24 03:16:14;;;;;;;;;1.00;1.00;;;;;8.98;78.46;100065.81;5076511;28;45257;-72
2022/11/24 03:18:40;;;;;;;;;2.00;2.00;;;;;9.00;78.59;100077.09;5076695;28;45304;-70
2022/11/24 03:21:05;;;;;;;;;3.25;3.25;;;;;8.91;78.73;100068.72;5074795;28;47202;-69
2022/11/24 03:23:30;;;;;;;;;1.00;1.00;;;;;8.93;78.83;100070.41;5076200;28;45308;-70
2022/11/24 03:26:06;;;;;;;;;1.00;1.00;;;;;8.86;79.25;100057.56;5076283;28;45357;-69
2022/11/24 03:28:31;;;;;;;;;1.00;1.00;;;;;8.90;79.11;100072.25;5076086;27;45275;-71
2022/11/24 03:30:57;;;;;;;;;2.25;2.25;;;;;8.91;79.43;100079.19;5074239;28;46350;-69
2022/11/24 03:33:22;;;;;;;;;2.00;2.00;;;;;8.90;79.44;100081.88;5076391;27;45286;-73
2022/11/24 03:35:47;;;;;;;;;3.00;1.00;;;;;8.80;79.64;100064.81;5076217;27;45365;-69
2022/11/24 03:38:13;;;;;;;;;3.00;3.00;;;;;8.84;79.47;100080.38;5076810;27;45435;-71
2022/11/24 03:40:38;;;;;;;;;2.25;2.25;;;;;8.85;79.94;100079.47;5075948;27;46565;-72
2022/11/24 03:43:03;;;;;;;;;2.00;2.00;;;;;8.83;79.74;100072.56;5076062;27;45271;-70
2022/11/24 03:45:29;;;;;;;;;1.50;1.50;;;;;8.82;79.63;100076.97;5074626;28;45402;-71
2022/11/24 03:47:54;;;;;;;;;2.25;2.00;;;;;8.83;79.91;100080.41;5076252;28;45464;-72
2022/11/24 03:50:19;;;;;;;;;3.00;2.00;;;;;8.80;79.74;100070.06;5075814;28;45565;-72
2022/11/24 03:52:45;;;;;;;;;3.00;3.00;;;;;8.79;79.87;100069.22;5075986;28;46020;-74
2022/11/24 03:55:10;;;;;;;;;3.00;2.00;;;;;8.77;79.81;100071.06;5075889;28;45364;-73
2022/11/24 03:57:35;;;;;;;;;2.00;2.00;;;;;8.73;79.99;100072.94;5076128;27;45445;-72
2022/11/24 04:00:01;;;;;;;;;2.00;2.00;;;;;8.73;79.80;100086.03;5075196;28;54079;-70
2022/11/24 04:02:26;;;;;;;;;1.00;1.00;;;;;8.75;79.81;100089.47;5075479;28;45273;-69
2022/11/24 04:04:51;;;;;;;;;2.00;2.00;;;;;8.76;79.64;100092.94;5076304;27;45334;-70
2022/11/24 04:07:17;;;;;;;;;1.00;1.00;;;;;8.72;79.81;100094.00;5075866;27;45673;-72
2022/11/24 04:09:43;;;;;;;;;1.00;1.00;;;;;8.68;79.92;100095.88;5075281;27;46067;-70
2022/11/24 04:14:53;;;;;;;;;3.25;3.25;;;;;8.70;79.89;100101.91;5074933;28;45404;-70
2022/11/24 04:17:18;;;;;;;;;1.25;1.25;;;;;8.74;80.55;100113.13;5075545;28;45615;-70
2022/11/24 04:19:43;;;;;;;;;2.00;2.00;;;;;8.68;79.72;100110.75;5075121;28;45681;-71
2022/11/24 04:22:09;;;;;;;;;7.50;4.75;;;;;8.69;80.17;100115.91;5075186;28;45377;-70
2022/11/24 04:24:34;;;;;;;;;2.75;2.75;;;;;8.72;79.99;100122.81;5075491;28;45326;-69
2022/11/24 04:26:59;;;;;;;;;3.75;3.75;;;;;8.64;80.10;100117.03;5076920;27;45581;-69
2022/11/24 04:29:25;;;;;;;;;3.00;2.25;;;;;8.66;80.27;100128.31;5075604;28;47770;-70
2022/11/24 04:31:50;;;;;;;;;3.00;3.00;;;;;8.71;79.96;100139.47;5075453;27;45334;-69
2022/11/24 04:34:15;;;;;;;;;2.50;2.50;;;;;8.64;80.29;100127.53;5075591;27;45270;-74
2022/11/24 04:36:40;;;;;;;;;2.00;2.00;;;;;8.69;80.16;100138.69;5075586;27;45184;-69
2022/11/24 04:39:06;;;;;;;;;1.00;1.00;;;;;8.62;80.29;100138.94;5075037;27;46121;-72
2022/11/24 04:41:31;;;;;;;;;3.00;3.00;;;;;8.67;80.34;100151.84;5075023;27;45303;-73
2022/11/24 04:43:56;;;;;;;;;1.00;1.00;;;;;8.65;80.75;100153.66;5075549;28;45243;-72
2022/11/24 04:46:22;;;;;;;;;3.25;3.25;;;;;8.62;80.26;100149.41;5075333;27;45627;-69
2022/11/24 04:48:47;;;;;;;;;3.00;3.00;;;;;8.64;80.72;100154.59;5074781;27;45310;-72
2022/11/24 04:51:14;;;;;;;;;2.00;2.00;;;;;8.59;80.58;100154.78;5074729;27;45339;-69
2022/11/24 04:53:39;;;;;;;;;1.00;1.00;;;;;8.58;80.65;100152.19;5074799;27;45302;-70
2022/11/24 04:56:05;;;;;;;;;2.00;2.00;;;;;8.52;80.72;100153.31;5075204;28;45394;-71
2022/11/24 04:58:30;;;;;;;;;1.00;1.00;;;;;8.58;80.51;100170.56;5073071;28;47043;-70
2022/11/24 05:00:56;;;;;;;;;2.00;2.00;;;;;8.58;80.43;100170.56;5074783;28;45410;-73
2022/11/24 05:03:21;;;;;;;;;3.25;3.00;;;;;8.57;80.37;100174.97;5074751;27;45517;-70
2022/11/24 05:05:46;;;;;;;;;2.25;2.25;;;;;8.56;80.75;100175.88;5074843;27;45559;-70
2022/11/24 05:08:11;;;;;;;;;2.00;2.00;;;;;8.55;80.90;100171.53;5074474;28;46168;-70
2022/11/24 05:10:37;;;;;;;;;3.50;2.25;;;;;8.52;80.93;100176.91;5074856;28;45463;-72
2022/11/24 05:13:05;;;;;;;;;2.25;1.25;;;;;8.55;80.66;100175.91;5074934;28;45426;-70
2022/11/24 05:15:31;;;;;;;;;3.25;2.00;;;;;8.53;80.43;100176.00;5075261;27;45400;-73
2022/11/24 05:17:57;;;;;;;;;1.75;1.75;;;;;8.49;80.63;100166.53;5075244;28;45405;-75
2022/11/24 05:20:23;;;;;;;;;2.00;2.00;;;;;8.47;80.67;100169.16;5075068;28;45209;-70
2022/11/24 05:22:49;;;;;;;;;3.50;2.50;;;;;8.50;80.41;100177.84;5075032;28;45380;-73
2022/11/24 05:25:14;;;;;;;;;3.00;3.00;;;;;8.38;81.02;100164.28;5077188;28;45425;-69
2022/11/24 05:27:40;;;;;;;;;1.00;1.00;;;;;8.46;80.87;100183.19;5077938;28;46279;-70
2022/11/24 05:30:06;;;;;;;;;5.00;4.00;;;;;8.45;80.62;100185.84;5078144;28;45402;-72
2022/11/24 05:32:31;;;;;;;;;2.00;2.00;;;;;8.45;80.84;100186.72;5077971;28;45361;-70
2022/11/24 05:34:59;;;;;;;;;2.00;2.00;;;;;8.47;80.57;100186.66;5078799;28;45330;-72
2022/11/24 05:37:24;;;;;;;;;2.50;2.00;;;;;8.46;80.63;100187.56;5078299;27;46226;-70
2022/11/24 05:39:50;;;;;;;;;1.50;1.25;;;;;8.45;80.78;100185.84;5076412;28;45366;-70
2022/11/24 05:42:57;;;;;;;;;2.75;2.75;;;;;8.44;80.93;100189.38;5078237;28;45423;-69
2022/11/24 05:45:04;;;;;;;;;3.25;3.25;;;;;8.44;80.97;100197.25;5075253;27;45523;-73
2022/11/24 05:47:29;;;;;;;;;0.25;0.25;;;;;8.41;81.27;100187.75;5077927;27;46248;-70
2022/11/24 05:49:55;;;;;;;;;2.00;2.00;;;;;8.46;81.36;100198.03;5077653;28;45259;-71
2022/11/24 05:52:20;;;;;;;;;1.50;1.50;;;;;8.45;81.07;100210.31;5077762;28;45385;-70
2022/11/24 05:54:45;;;;;;;;;1.00;1.00;;;;;8.45;80.96;100206.81;5077662;28;45663;-71
2022/11/24 05:57:12;;;;;;;;;2.00;2.00;;;;;8.43;81.29;100209.50;5077540;28;45440;-73
2022/11/24 05:59:37;;;;;;;;;2.25;2.00;;;;;8.44;81.33;100205.97;5077499;27;45373;-70
2022/11/24 06:02:02;;;;;;;;;1.75;1.75;;;;;8.41;80.98;100208.72;5077538;28;45308;-71
2022/11/24 06:04:30;;;;;;;;;3.50;2.75;;;;;8.41;81.01;100218.31;5077985;28;45376;-71
2022/11/24 06:06:55;;;;;;;;;2.75;2.75;;;;;8.38;81.88;100215.81;5077410;28;46326;-74
2022/11/24 06:09:20;;;;;;;;;1.50;1.50;;;;;8.36;81.89;100217.66;5076839;28;45306;-72
2022/11/24 06:11:47;;;;;;;;;5.25;4.00;;;;;8.39;81.53;100225.41;5077286;28;45357;-74
2022/11/24 06:14:12;;;;;;;;;5.00;5.00;;;;;8.37;81.59;100227.22;5077603;27;45310;-71
2022/11/24 06:16:37;;;;;;;;;2.00;2.00;;;;;8.32;81.51;100215.13;5075590;28;47318;-69
2022/11/24 06:19:03;;;;;;;;;2.50;2.50;;;;;8.33;81.93;100224.72;5077573;27;45356;-73
2022/11/24 06:21:29;;;;;;;;;2.75;2.75;;;;;8.29;82.02;100228.34;5077700;27;45669;-72
2022/11/24 06:23:54;;;;;;;;;2.00;2.00;;;;;8.30;82.28;100231.84;5077013;28;45541;-75
2022/11/24 06:26:20;;;;;;;;;1.00;1.00;;;;;8.28;82.08;100236.28;5076915;28;46192;-70
2022/11/24 06:28:45;;;;;;;;;2.75;2.75;;;;;8.21;81.86;100224.31;5075464;28;45482;-71
2022/11/24 06:31:10;;;;;;;;;4.00;2.25;;;;;8.21;82.63;100221.69;5076577;27;45401;-73
2022/11/24 06:33:37;;;;;;;;;3.50;3.50;;;;;8.30;82.55;100239.72;5077157;27;45351;-74
2022/11/24 06:36:06;;;;;;;;;4.75;3.75;;;;;8.30;83.04;100248.41;5076384;28;46540;-71
2022/11/24 06:38:33;;;;;;;;;2.00;2.00;;;;;8.29;83.21;100241.47;5091929;27;45449;-71
2022/11/24 06:41:06;;;;;;;;;2.25;2.25;;;;;8.27;83.14;100240.66;5076670;27;45180;-70
2022/11/24 06:43:32;;;;;;;;;0.00;0.00;;;;;8.30;83.15;100250.19;5076926;28;45319;-72
2022/11/24 06:45:58;;;;;;;;;4.75;4.75;;;;;8.33;83.14;100256.16;5076242;28;45454;-72
2022/11/24 06:48:24;;;;;;;;;2.25;2.25;;;;;8.32;82.95;100262.31;5074642;27;45270;-72
2022/11/24 06:50:50;;;;;;;;;1.00;1.00;;;;;8.29;83.12;100256.34;5073315;28;45311;-72
2022/11/24 06:53:16;;;;;;;;;3.00;3.00;;;;;8.32;83.17;100269.34;5068873;27;45509;-73
2022/11/24 06:55:42;;;;;;;;;2.00;2.00;;;;;8.32;83.32;100275.41;5062371;27;45465;-74
2022/11/24 06:58:08;;;;;;;;;5.50;5.50;;;;;8.32;83.22;100285.91;5056193;28;45530;-77
2022/11/24 07:00:33;;;;;;;;;7.75;7.75;;;;;8.31;83.63;100283.34;5065677;28;45549;-72
2022/11/24 07:02:59;;;;;;;;;6.75;6.75;;;;;8.34;83.75;100288.47;5072017;28;45560;-73
2022/11/24 07:05:25;;;;;;;;;6.00;6.00;;;;;8.31;83.66;100292.06;5074245;27;45621;-75
2022/11/24 07:07:51;;;;;;;;;5.00;5.00;;;;;8.36;84.00;100301.50;5074852;27;45332;-71
2022/11/24 07:10:16;;;;;;;;;3.00;3.00;;;;;8.36;83.69;100312.00;5073615;27;45472;-75
2022/11/24 07:12:42;;;;;;;;;8.50;7.25;;;;;8.35;83.68;100316.41;5076366;27;45231;-71
2022/11/24 07:15:08;;;;;;;;;3.75;3.75;;;;;8.30;83.50;100308.69;5058859;27;45602;-76
2022/11/24 07:17:39;;;;;;;;;5.00;5.00;;;;;8.34;83.92;100315.53;5077097;27;45370;-80
2022/11/24 07:20:07;;;;;;;;;4.75;4.25;;;;;8.33;83.70;100326.91;5076415;27;45291;-79
2022/11/24 07:22:34;;;;;;;;;3.75;3.75;;;;;8.36;84.05;100325.97;5079259;27;45486;-78
2022/11/24 07:24:59;;;;;;;;;5.00;5.00;;;;;8.38;83.66;100336.38;5068527;27;46304;-76
2022/11/24 07:27:29;;;;;;;;;6.00;6.00;;;;;8.35;83.97;100326.88;5055809;28;45245;-77
2022/11/24 07:29:54;;;;;;;;;5.25;5.25;;;;;8.36;84.00;100335.59;5055776;28;45352;-75
2022/11/24 07:32:19;;;;;;;;;7.00;6.00;;;;;8.31;84.03;100328.72;5074985;27;45395;-72
2022/11/24 07:34:45;;;;;;;;;6.50;5.50;;;;;8.31;83.79;100333.97;5074043;27;46537;-70
2022/11/24 07:37:10;;;;;;;;;4.00;4.00;;;;;8.30;84.37;100334.88;5056605;27;45269;-70
2022/11/24 07:39:36;;;;;;;;;7.25;6.75;;;;;8.31;84.12;100325.28;5056022;28;45255;-72
2022/11/24 07:42:02;;;;;;;;;7.25;7.25;;;;;8.24;84.49;100327.25;5055761;28;45209;-72
2022/11/24 07:44:27;;;;;;;;;6.00;6.00;;;;;8.27;84.90;100328.91;5055733;28;46340;-70
2022/11/24 07:46:53;;;;;;;;;5.00;5.00;;;;;8.27;84.75;100327.13;5055439;28;45180;-71
2022/11/24 07:49:18;;;;;;;;;7.50;7.50;;;;;8.22;84.62;100323.81;5052647;28;45490;-71
2022/11/24 07:51:44;;;;;;;;;5.25;5.25;;;;;8.26;85.11;100335.91;5055616;28;45560;-69
2022/11/24 07:54:09;;;;;;;;;4.75;3.50;;;;;8.23;84.95;100343.88;5054897;28;46462;-70
2022/11/24 07:56:35;;;;;;;;;4.25;4.25;;;;;8.21;85.14;100353.56;5055372;28;45188;-72
2022/11/24 07:59:00;;;;;;;;;5.50;5.25;;;;;8.24;85.41;100347.38;5055215;28;45274;-72
2022/11/24 08:01:26;;;;;;;;;11.00;11.00;;;;;8.26;85.45;100356.03;5055263;28;45330;-72
2022/11/24 08:03:51;;;;;;;;;6.25;6.25;;;;;8.24;85.22;100361.31;5054757;27;46297;-72
2022/11/24 08:06:17;;;;;;;;;9.00;7.75;;;;;8.27;85.40;100368.22;5055403;28;45438;-72
2022/11/24 08:08:43;;;;;;;;;6.75;6.75;;;;;8.26;85.49;100372.59;5055571;28;45381;-72
2022/11/24 08:11:14;;;;;;;;;10.00;10.00;;;;;8.25;85.84;100370.03;5055849;28;45665;-71
2022/11/24 08:13:40;;;;;;;;;8.50;8.50;;;;;8.32;85.36;100384.66;5055055;28;46458;-72
2022/11/24 08:16:07;;;;;;;;;6.75;6.75;;;;;8.34;86.17;100380.22;5054951;28;45252;-72
2022/11/24 08:18:34;;;;;;;;;6.50;6.50;;;;;8.39;85.61;100391.38;5054779;28;45317;-70
2022/11/24 08:20:59;;;;;;;;;11.00;11.00;;;;;8.41;85.97;100384.31;5055175;28;45421;-73
2022/11/24 08:23:25;;;;;;;;;7.75;7.75;;;;;8.46;85.16;100399.88;5053521;28;47446;-72
2022/11/24 08:25:51;;;;;;;;;8.75;8.75;;;;;8.46;85.63;100394.63;5053583;28;45849;-72
2022/11/24 08:28:16;;;;;;;;;9.00;8.50;;;;;8.47;85.33;100399.84;5054654;28;45300;-71
2022/11/24 08:30:41;;;;;;;;;9.25;9.25;;;;;8.44;85.31;100394.72;5054910;28;45397;-72
2022/11/24 08:33:07;;;;;;;;;9.00;9.00;;;;;8.50;85.42;100414.66;5054853;28;46115;-72
2022/11/24 08:35:36;;;;;;;;;9.50;9.00;;;;;8.47;85.73;100399.84;5087115;27;45501;-72
2022/11/24 08:38:01;;;;;;;;;9.50;9.50;;;;;8.48;85.61;100406.78;5054854;28;45370;-71
2022/11/24 08:40:27;;;;;;;;;10.00;10.00;;;;;8.52;85.78;100425.06;5054767;28;45356;-73
2022/11/24 08:42:56;;;;;;;;;13.75;11.00;;;;;8.48;85.50;100411.16;5054585;28;45776;-73
2022/11/24 08:45:22;;;;;;;;;9.25;9.25;;;;;8.48;85.39;100421.66;5054565;28;45520;-71
2022/11/24 08:47:52;;;;;;;;;7.50;6.50;;;;;8.53;85.63;100422.41;5054896;28;45573;-72
2022/11/24 08:50:17;;;;;;;;;11.50;10.75;;;;;8.60;85.85;100418.66;5070246;28;45452;-71
2022/11/24 08:52:43;;;;;;;;;12.75;10.00;;;;;8.65;85.64;100420.28;5086894;27;45431;-70
2022/11/24 08:55:08;;;;;;;;;7.50;7.50;;;;;8.70;85.72;100423.59;5086555;27;45467;-74
2022/11/24 08:57:33;;;;;;;;;11.00;11.00;;;;;8.75;85.90;100429.53;5054085;28;45348;-71
2022/11/24 08:59:58;;;;;;;;;9.75;8.75;;;;;8.74;85.91;100414.72;5086077;27;45206;-73
2022/11/24 09:02:24;;;;;;;;;8.25;7.75;;;;;8.80;85.68;100416.25;5053874;28;46830;-72
2022/11/24 09:04:50;;;;;;;;;8.25;8.25;;;;;8.85;85.65;100423.06;5053837;28;45272;-71
2022/11/24 09:07:15;;;;;;;;;8.75;8.00;;;;;8.91;85.34;100430.69;5053877;28;45343;-71
2022/11/24 09:09:40;;;;;;;;;5.75;5.75;;;;;8.95;85.46;100430.59;5054524;28;45536;-71
2022/11/24 09:12:07;;;;;;;;;6.00;6.00;;;;;8.99;85.38;100432.19;5053644;28;46536;-72
2022/11/24 09:14:33;;;;;;;;;7.00;6.50;;;;;8.96;85.09;100420.03;5053911;28;45228;-71
2022/11/24 09:16:58;;;;;;;;;6.25;6.25;;;;;9.02;85.12;100432.94;5054580;28;45396;-71
2022/11/24 09:19:23;;;;;;;;;5.00;5.00;;;;;9.01;85.04;100428.63;5054225;28;45201;-73
2022/11/24 09:21:49;;;;;;;;;8.25;6.50;;;;;9.03;84.82;100420.69;5053611;28;45351;-72
2022/11/24 09:24:15;;;;;;;;;5.25;5.25;;;;;9.05;84.78;100426.72;5053485;28;45304;-70
2022/11/24 09:26:40;;;;;;;;;7.25;7.25;;;;;9.06;84.95;100423.19;5054308;28;45385;-72
2022/11/24 09:29:09;;;;;;;;;9.25;9.25;;;;;9.09;85.14;100428.31;5053836;28;45422;-73
2022/11/24 09:31:36;;;;;;;;;10.25;9.00;;;;;9.15;84.83;100435.13;5053681;28;45442;-71
2022/11/24 09:34:03;;;;;;;;;6.75;6.75;;;;;9.16;84.96;100435.06;5053303;28;45243;-71
2022/11/24 09:36:30;;;;;;;;;10.50;10.50;;;;;9.18;84.68;100427.13;5052190;28;45479;-72
2022/11/24 09:38:56;;;;;;;;;26.00;26.00;;;;;9.26;84.56;100429.47;5053950;28;45452;-71
2022/11/24 09:41:37;;;;;;;;;11.50;10.25;;;;;9.30;84.30;100429.31;5053549;28;46058;-71
2022/11/24 09:44:26;;;;;;;;;28.25;27.25;;;;;9.34;84.37;100427.41;5053537;28;45199;-69
2022/11/24 09:47:10;;;;;;;;;61.50;50.75;;;;;9.38;84.13;100425.53;5053623;28;45296;-70
2022/11/24 09:49:54;;;;;;;;;12.50;12.50;;;;;9.42;83.66;100422.72;5086351;27;45414;-72
2022/11/24 09:52:38;;;;;;;;;13.00;13.00;;;;;9.44;83.60;100420.06;5052978;28;46384;-70
2022/11/24 09:55:15;;;;;;;;;11.00;10.50;;;;;9.49;83.52;100423.34;5053180;28;45283;-72
2022/11/24 09:57:42;;;;;;;;;8.75;8.50;;;;;9.52;83.22;100425.00;5054026;28;45321;-72
2022/11/24 10:00:13;;;;;;;;;8.75;8.75;;;;;9.58;83.62;100436.13;5053640;28;45295;-69
2022/11/24 10:02:38;;;;;;;;;9.25;9.25;;;;;9.63;83.34;100441.22;5052993;28;45216;-71
2022/11/24 10:05:05;;;;;;;;;9.75;9.75;;;;;9.70;83.08;100445.31;5053120;28;45343;-72
2022/11/24 10:07:45;;;;;;;;;7.00;6.00;;;;;9.75;83.08;100445.13;5053435;27;45421;-71
2022/11/24 10:10:18;;;;;;;;;7.75;7.75;;;;;9.79;82.24;100455.47;5053389;28;45337;-70
2022/11/24 10:13:02;;;;;;;;;8.75;8.75;;;;;9.83;81.82;100465.84;5055596;28;46347;-70
2022/11/24 10:15:52;;;;;;;;;9.00;8.25;;;;;9.80;82.29;100451.06;5056896;28;45424;-70
2022/11/24 10:19:11;;;;;;;;;6.50;6.50;;;;;9.86;81.82;100447.34;5056670;28;45297;-70
2022/11/24 10:22:00;;;;;;;;;7.75;7.75;;;;;9.88;82.29;100433.22;5047683;28;45636;-70
2022/11/24 10:24:25;;;;;;;;;6.50;6.50;;;;;9.96;81.72;100434.69;5088719;27;46260;-71
2022/11/24 10:27:00;;;;;;;;;13.75;13.75;;;;;10.00;81.86;100431.00;5056033;28;45300;-70
2022/11/24 10:29:40;;;;;;;;;12.75;12.50;;;;;10.04;82.01;100419.47;5056360;28;45383;-71
2022/11/24 10:32:20;;;;;;;;;11.00;10.25;;;;;10.13;81.50;100426.13;5056981;28;45587;-72
2022/11/24 10:34:50;;;;;;;;;12.75;9.50;;;;;10.19;81.06;100420.63;5055331;28;46308;-70
2022/11/24 10:37:34;;;;;;;;;14.50;14.50;;;;;10.23;81.42;100422.19;5055188;28;45562;-71
2022/11/24 10:40:34;;;;;;;;;6.50;6.50;;;;;10.27;81.16;100413.28;5056335;28;45268;-70
2022/11/24 10:42:59;;;;;;;;;17.75;17.75;;;;;10.32;81.66;100408.66;5056935;28;45380;-71
2022/11/24 10:45:27;;;;;;;;;9.50;9.50;;;;;10.39;80.86;100414.53;5055921;28;46012;-70
2022/11/24 10:47:52;;;;;;;;;14.75;14.75;;;;;10.42;80.91;100408.31;5056440;28;45296;-70
2022/11/24 10:50:20;;;;;;;;;11.00;10.25;;;;;10.47;80.08;100398.47;5056089;28;45322;-72
2022/11/24 10:52:49;;;;;;;;;9.50;9.50;;;;;10.55;80.50;100406.03;5056494;28;45542;-71
2022/11/24 10:55:15;;;;;;;;;12.50;12.50;;;;;10.51;79.97;100389.50;5087972;27;47916;-72
2022/11/24 10:57:41;;;;;;;;;9.75;9.75;;;;;10.62;79.47;100392.56;5088181;27;45288;-71
2022/11/24 11:00:19;;;;;;;;;13.00;13.00;;;;;10.65;79.98;100389.78;5056120;28;45462;-73
2022/11/24 11:02:47;;;;;;;;;7.00;7.00;;;;;10.66;79.75;100380.13;5056460;28;45375;-69
2022/11/24 11:05:40;;;;;;;;;9.75;8.50;;;;;10.74;79.04;100390.31;5055584;28;46227;-71
2022/11/24 11:08:20;;;;;;;;;8.00;8.00;;;;;10.74;78.54;100385.88;5087515;27;45495;-72
2022/11/24 11:10:48;;;;;;;;;8.50;8.50;;;;;10.72;79.02;100376.38;5055833;28;45378;-72
2022/11/24 11:13:28;;;;;;;;;12.75;12.75;;;;;10.75;78.88;100369.19;5055848;28;45631;-72
2022/11/24 11:15:57;;;;;;;;;12.25;12.25;;;;;10.83;78.81;100374.13;5088021;27;46764;-71
2022/11/24 11:18:32;;;;;;;;;11.00;10.50;;;;;10.84;79.03;100365.31;5055647;28;45382;-72
2022/11/24 11:21:01;;;;;;;;;14.50;14.00;;;;;10.96;78.75;100372.66;5055483;28;45280;-71
2022/11/24 11:23:33;;;;;;;;;17.50;17.00;;;;;11.03;77.91;100361.84;5055286;28;45448;-72
2022/11/24 11:26:17;;;;;;;;;16.25;15.50;;;;;11.14;77.81;100364.00;5054901;28;46298;-71
2022/11/24 11:29:12;;;;;;;;;11.25;11.00;;;;;11.20;77.97;100361.06;5055155;28;45251;-71
2022/11/24 11:31:38;;;;;;;;;11.50;11.50;;;;;11.25;77.28;100357.28;5087907;27;45393;-72
2022/11/24 11:34:09;;;;;;;;;10.00;8.75;;;;;11.29;76.78;100354.50;5055294;27;45466;-71
2022/11/24 11:36:46;;;;;;;;;10.25;10.25;;;;;11.30;76.02;100351.81;5054960;28;45598;-71
2022/11/24 11:39:34;;;;;;;;;10.75;10.25;;;;;11.30;76.26;100351.81;5054866;28;45289;-72